createdAt,value
2018-04-27T00:00:01.035Z,12.63
2018-04-27T00:01:01.027Z,12.69
2018-04-27T00:02:01.020Z,12.71
2018-04-27T00:03:01.006Z,12.73
2018-04-27T00:04:00.999Z,12.69
2018-04-27T00:05:00.987Z,12.77
2018-04-27T00:06:00.975Z,12.63
2018-04-27T00:07:00.965Z,12.73
2018-04-27T00:08:00.954Z,12.71
2018-04-27T00:09:00.946Z,12.67
2018-04-27T00:10:00.942Z,12.69
2018-04-27T00:11:00.925Z,12.69
2018-04-27T00:12:00.914Z,12.71
2018-04-27T00:13:00.904Z,12.69
2018-04-27T00:14:00.895Z,12.69
2018-04-27T00:15:00.885Z,12.71
2018-04-27T00:16:00.875Z,12.70
2018-04-27T00:17:00.867Z,12.77
2018-04-27T00:18:00.855Z,12.69
2018-04-27T00:19:00.846Z,12.66
2018-04-27T00:20:00.835Z,12.66
2018-04-27T00:21:00.826Z,12.63
2018-04-27T00:22:00.816Z,12.61
2018-04-27T00:23:00.806Z,12.59
2018-04-27T00:24:00.794Z,12.61
2018-04-27T00:25:00.785Z,12.54
2018-04-27T00:26:00.774Z,12.44
2018-04-27T00:27:00.764Z,12.49
2018-04-27T00:28:00.755Z,12.52
2018-04-27T00:29:00.744Z,12.37
2018-04-27T00:30:00.736Z,12.40
2018-04-27T00:31:00.724Z,12.31
2018-04-27T00:32:00.713Z,12.29
2018-04-27T00:33:00.705Z,12.26
2018-04-27T00:34:00.695Z,12.29
2018-04-27T00:35:00.684Z,12.31
2018-04-27T00:36:00.673Z,12.25
2018-04-27T00:37:00.665Z,12.33
2018-04-27T00:38:00.654Z,12.22
2018-04-27T00:39:00.645Z,12.22
2018-04-27T00:40:00.632Z,12.22
2018-04-27T00:41:00.626Z,12.21
2018-04-27T00:42:00.612Z,12.08
2018-04-27T00:43:00.604Z,12.21
2018-04-27T00:44:00.597Z,12.08
2018-04-27T00:45:00.586Z,12.15
2018-04-27T00:46:00.572Z,12.08
2018-04-27T00:47:00.565Z,12.12
2018-04-27T00:48:00.549Z,12.05
2018-04-27T00:49:00.541Z,12.04
2018-04-27T00:50:00.530Z,12.00
2018-04-27T00:51:00.521Z,12.01
2018-04-27T00:52:00.511Z,11.98
2018-04-27T00:53:00.499Z,12.00
2018-04-27T00:54:00.488Z,11.87
2018-04-27T00:55:00.478Z,11.88
2018-04-27T00:56:00.468Z,11.88
2018-04-27T00:57:00.456Z,11.93
2018-04-27T00:58:00.447Z,11.90
2018-04-27T00:59:00.438Z,11.81
2018-04-27T01:00:00.428Z,11.81
2018-04-27T01:01:00.417Z,11.84
2018-04-27T01:02:00.407Z,11.82
2018-04-27T01:03:00.393Z,11.85
2018-04-27T01:04:00.382Z,11.88
2018-04-27T01:05:00.373Z,11.88
2018-04-27T01:06:00.362Z,11.82
2018-04-27T01:07:00.352Z,11.84
2018-04-27T01:08:00.340Z,11.93
2018-04-27T01:09:00.331Z,11.79
2018-04-27T01:10:00.318Z,11.88
2018-04-27T01:11:00.310Z,11.84
2018-04-27T01:12:00.299Z,11.87
2018-04-27T01:13:00.289Z,11.84
2018-04-27T01:14:00.276Z,11.82
2018-04-27T01:15:00.266Z,11.85
2018-04-27T01:16:00.255Z,11.81
2018-04-27T01:17:00.244Z,11.84
2018-04-27T01:18:00.239Z,11.69
2018-04-27T01:19:00.225Z,11.82
2018-04-27T01:20:00.211Z,11.81
2018-04-27T01:21:00.201Z,11.79
2018-04-27T01:22:00.190Z,11.79
2018-04-27T01:23:00.180Z,11.67
2018-04-27T01:24:00.168Z,11.67
2018-04-27T01:25:00.158Z,11.59
2018-04-27T01:26:00.146Z,11.72
2018-04-27T01:27:00.137Z,11.62
2018-04-27T01:28:00.124Z,11.64
2018-04-27T01:29:00.117Z,11.60
2018-04-27T01:30:00.105Z,11.64
2018-04-27T01:31:00.092Z,11.64
2018-04-27T01:32:00.081Z,11.63
2018-04-27T01:33:00.070Z,11.60
2018-04-27T01:34:00.061Z,11.59
2018-04-27T01:35:00.050Z,11.56
2018-04-27T01:36:00.037Z,11.59
2018-04-27T01:37:00.025Z,11.54
2018-04-27T01:38:00.015Z,11.64
2018-04-27T01:39:00.006Z,11.62
2018-04-27T01:39:59.991Z,11.56
2018-04-27T01:40:59.980Z,11.48
2018-04-27T01:41:59.972Z,11.64
2018-04-27T01:42:59.964Z,11.63
2018-04-27T01:43:59.950Z,11.54
2018-04-27T01:44:59.939Z,11.49
2018-04-27T01:45:59.927Z,11.46
2018-04-27T01:46:59.918Z,11.62
2018-04-27T01:47:59.908Z,11.49
2018-04-27T01:48:59.895Z,11.45
2018-04-27T01:49:59.886Z,11.48
2018-04-27T01:50:59.874Z,11.48
2018-04-27T01:51:59.863Z,11.39
2018-04-27T01:52:59.851Z,11.39
2018-04-27T01:53:59.839Z,11.38
2018-04-27T01:54:59.829Z,11.38
2018-04-27T01:55:59.818Z,11.30
2018-04-27T01:56:59.809Z,11.27
2018-04-27T01:57:59.796Z,11.31
2018-04-27T01:58:59.786Z,11.39
2018-04-27T01:59:59.774Z,11.28
2018-04-27T02:00:59.769Z,11.36
2018-04-27T02:01:59.750Z,11.38
2018-04-27T02:02:59.743Z,11.41
2018-04-27T02:03:59.727Z,11.35
2018-04-27T02:04:59.718Z,11.39
2018-04-27T02:05:59.707Z,11.36
2018-04-27T02:06:59.697Z,11.38
2018-04-27T02:07:59.683Z,11.44
2018-04-27T02:08:59.674Z,11.36
2018-04-27T02:09:59.661Z,11.24
2018-04-27T02:10:59.649Z,11.24
2018-04-27T02:11:59.641Z,11.17
2018-04-27T02:12:59.625Z,11.28
2018-04-27T02:13:59.616Z,11.19
2018-04-27T02:14:59.609Z,11.21
2018-04-27T02:15:59.592Z,11.24
2018-04-27T02:16:59.582Z,11.16
2018-04-27T02:17:59.571Z,11.23
2018-04-27T02:18:59.561Z,11.17
2018-04-27T02:19:59.547Z,11.05
2018-04-27T02:20:59.544Z,11.20
2018-04-27T02:21:59.526Z,11.12
2018-04-27T02:22:59.515Z,11.02
2018-04-27T02:23:59.505Z,11.05
2018-04-27T02:24:59.492Z,11.09
2018-04-27T02:25:59.481Z,11.09
2018-04-27T02:26:59.468Z,11.02
2018-04-27T02:27:59.459Z,10.99
2018-04-27T02:28:59.448Z,11.13
2018-04-27T02:29:59.435Z,11.08
2018-04-27T02:30:59.423Z,11.03
2018-04-27T02:31:59.415Z,11.11
2018-04-27T02:32:59.400Z,11.01
2018-04-27T02:33:59.388Z,11.05
2018-04-27T02:34:59.375Z,10.98
2018-04-27T02:35:59.365Z,11.05
2018-04-27T02:36:59.356Z,11.03
2018-04-27T02:37:59.342Z,11.01
2018-04-27T02:38:59.331Z,10.95
2018-04-27T02:39:59.321Z,10.95
2018-04-27T02:40:59.308Z,10.95
2018-04-27T02:41:59.294Z,10.84
2018-04-27T02:42:59.283Z,10.94
2018-04-27T02:43:59.272Z,10.94
2018-04-27T02:44:59.268Z,10.93
2018-04-27T02:45:59.250Z,10.98
2018-04-27T02:46:59.239Z,10.88
2018-04-27T02:47:59.227Z,10.86
2018-04-27T02:48:59.212Z,10.81
2018-04-27T02:49:59.204Z,10.68
2018-04-27T02:50:59.191Z,10.80
2018-04-27T02:51:59.182Z,10.83
2018-04-27T02:52:59.168Z,10.76
2018-04-27T02:53:59.155Z,10.70
2018-04-27T02:54:59.149Z,10.91
2018-04-27T02:55:59.135Z,10.91
2018-04-27T02:56:59.127Z,10.91
2018-04-27T02:57:59.112Z,10.98
2018-04-27T02:58:59.101Z,10.88
2018-04-27T02:59:59.091Z,10.72
2018-04-27T03:00:59.078Z,10.70
2018-04-27T03:01:59.066Z,10.66
2018-04-27T03:02:59.052Z,10.76
2018-04-27T03:03:59.043Z,10.90
2018-04-27T03:04:59.034Z,10.81
2018-04-27T03:05:59.027Z,10.69
2018-04-27T03:06:59.019Z,10.86
2018-04-27T03:07:58.997Z,10.87
2018-04-27T03:08:58.984Z,10.81
2018-04-27T03:09:58.973Z,10.84
2018-04-27T03:10:58.968Z,10.84
2018-04-27T03:11:58.949Z,10.81
2018-04-27T03:12:58.939Z,10.86
2018-04-27T03:13:58.927Z,10.69
2018-04-27T03:14:58.914Z,10.66
2018-04-27T03:15:58.905Z,10.66
2018-04-27T03:16:58.891Z,10.69
2018-04-27T03:17:58.881Z,10.65
2018-04-27T03:18:58.872Z,10.69
2018-04-27T03:19:58.857Z,10.68
2018-04-27T03:20:58.846Z,10.78
2018-04-27T03:21:58.834Z,10.83
2018-04-27T03:22:58.822Z,10.80
2018-04-27T03:23:58.840Z,10.88
2018-04-27T03:24:58.799Z,10.83
2018-04-27T03:25:58.786Z,10.72
2018-04-27T03:26:58.774Z,10.62
2018-04-27T03:27:58.765Z,10.49
2018-04-27T03:28:58.752Z,10.57
2018-04-27T03:29:58.744Z,10.44
2018-04-27T03:30:58.732Z,10.47
2018-04-27T03:31:58.718Z,10.39
2018-04-27T03:32:58.705Z,10.39
2018-04-27T03:33:58.697Z,10.44
2018-04-27T03:34:58.688Z,10.43
2018-04-27T03:35:58.672Z,10.38
2018-04-27T03:36:58.660Z,10.34
2018-04-27T03:37:58.649Z,10.36
2018-04-27T03:38:58.636Z,10.36
2018-04-27T03:39:58.623Z,10.36
2018-04-27T03:40:58.613Z,10.35
2018-04-27T03:41:58.600Z,10.34
2018-04-27T03:42:58.593Z,10.34
2018-04-27T03:43:58.577Z,10.31
2018-04-27T03:44:58.564Z,10.29
2018-04-27T03:45:58.555Z,10.29
2018-04-27T03:46:58.540Z,10.28
2018-04-27T03:47:58.528Z,10.16
2018-04-27T03:48:58.513Z,10.28
2018-04-27T03:49:58.503Z,10.26
2018-04-27T03:50:58.493Z,10.16
2018-04-27T03:51:58.547Z,10.25
2018-04-27T03:52:58.467Z,10.28
2018-04-27T03:53:58.456Z,10.26
2018-04-27T03:54:58.444Z,10.18
2018-04-27T03:55:58.433Z,10.16
2018-04-27T03:56:58.429Z,10.20
2018-04-27T03:57:58.410Z,10.16
2018-04-27T03:58:58.401Z,10.17
2018-04-27T03:59:58.383Z,10.16
2018-04-27T04:00:58.371Z,10.14
2018-04-27T04:01:58.361Z,10.16
2018-04-27T04:02:58.350Z,10.18
2018-04-27T04:03:58.333Z,10.11
2018-04-27T04:04:58.322Z,10.16
2018-04-27T04:05:58.310Z,10.20
2018-04-27T04:06:58.296Z,10.10
2018-04-27T04:07:58.287Z,10.25
2018-04-27T04:08:58.273Z,10.28
2018-04-27T04:09:58.262Z,10.28
2018-04-27T04:10:58.248Z,10.31
2018-04-27T04:11:58.236Z,10.18
2018-04-27T04:12:58.222Z,10.20
2018-04-27T04:13:58.210Z,10.13
2018-04-27T04:14:58.200Z,10.14
2018-04-27T04:15:58.184Z,10.31
2018-04-27T04:16:58.174Z,10.22
2018-04-27T04:17:58.164Z,10.18
2018-04-27T04:18:58.151Z,10.11
2018-04-27T04:19:58.137Z,10.13
2018-04-27T04:20:58.128Z,10.22
2018-04-27T04:21:58.114Z,10.07
2018-04-27T04:22:58.105Z,10.01
2018-04-27T04:23:58.087Z,10.10
2018-04-27T04:24:58.074Z,10.10
2018-04-27T04:25:58.064Z,10.09
2018-04-27T04:26:58.051Z,10.10
2018-04-27T04:27:58.040Z,10.10
2018-04-27T04:28:58.031Z,10.02
2018-04-27T04:29:58.012Z,10.09
2018-04-27T04:30:58.002Z,10.16
2018-04-27T04:31:57.988Z,10.13
2018-04-27T04:32:57.981Z,10.16
2018-04-27T04:33:57.965Z,10.25
2018-04-27T04:34:57.957Z,10.20
2018-04-27T04:35:57.939Z,10.28
2018-04-27T04:36:57.928Z,10.28
2018-04-27T04:37:57.916Z,10.31
2018-04-27T04:38:57.904Z,10.25
2018-04-27T04:39:57.892Z,10.17
2018-04-27T04:40:57.880Z,10.24
2018-04-27T04:41:57.866Z,10.28
2018-04-27T04:42:57.853Z,10.28
2018-04-27T04:43:57.844Z,10.31
2018-04-27T04:44:57.832Z,10.38
2018-04-27T04:45:57.819Z,10.35
2018-04-27T04:46:57.807Z,10.32
2018-04-27T04:47:57.793Z,10.46
2018-04-27T04:48:57.782Z,10.63
2018-04-27T04:49:57.769Z,10.90
2018-04-27T04:50:57.758Z,11.20
2018-04-27T04:51:57.746Z,11.44
2018-04-27T04:52:57.735Z,11.74
2018-04-27T04:53:57.721Z,12.22
2018-04-27T04:54:57.712Z,12.51
2018-04-27T04:55:57.699Z,12.98
2018-04-27T04:56:57.686Z,13.28
2018-04-27T04:57:57.676Z,13.31
2018-04-27T04:58:57.671Z,13.51
2018-04-27T04:59:57.658Z,13.66
2018-04-27T05:00:57.648Z,13.91
2018-04-27T05:01:57.639Z,14.09
2018-04-27T05:02:57.669Z,14.16
2018-04-27T05:03:57.622Z,14.31
2018-04-27T05:04:57.603Z,14.48
2018-04-27T05:05:57.599Z,14.56
2018-04-27T05:06:57.585Z,14.57
2018-04-27T05:07:57.576Z,14.63
2018-04-27T05:08:57.564Z,14.56
2018-04-27T05:09:57.561Z,14.54
2018-04-27T05:10:57.550Z,14.42
2018-04-27T05:11:57.535Z,14.31
2018-04-27T05:12:57.522Z,14.13
2018-04-27T05:13:57.519Z,14.09
2018-04-27T05:14:57.507Z,14.12
2018-04-27T05:15:57.493Z,14.17
2018-04-27T05:16:57.483Z,14.04
2018-04-27T05:17:57.474Z,14.01
2018-04-27T05:18:57.465Z,14.06
2018-04-27T05:19:57.455Z,14.05
2018-04-27T05:20:57.446Z,13.98
2018-04-27T05:21:57.436Z,13.86
2018-04-27T05:22:57.425Z,13.81
2018-04-27T05:23:57.416Z,13.71
2018-04-27T05:24:57.404Z,13.71
2018-04-27T05:25:57.397Z,13.55
2018-04-27T05:26:57.387Z,13.46
2018-04-27T05:27:57.374Z,13.38
2018-04-27T05:28:57.370Z,13.31
2018-04-27T05:29:57.360Z,13.06
2018-04-27T05:30:57.352Z,12.96
2018-04-27T05:31:57.337Z,12.80
2018-04-27T05:32:57.329Z,12.61
2018-04-27T05:33:57.319Z,12.40
2018-04-27T05:34:57.308Z,12.19
2018-04-27T05:35:57.302Z,12.15
2018-04-27T05:36:57.289Z,11.94
2018-04-27T05:37:57.337Z,11.88
2018-04-27T05:38:57.272Z,11.82
2018-04-27T05:39:57.259Z,11.79
2018-04-27T05:40:57.250Z,11.63
2018-04-27T05:41:57.239Z,11.64
2018-04-27T05:42:57.231Z,11.67
2018-04-27T05:43:57.219Z,11.67
2018-04-27T05:44:57.212Z,11.64
2018-04-27T05:45:57.200Z,11.60
2018-04-27T05:46:57.195Z,11.60
2018-04-27T05:47:57.180Z,11.67
2018-04-27T05:48:57.173Z,11.66
2018-04-27T05:49:57.158Z,11.70
2018-04-27T05:50:57.147Z,11.74
2018-04-27T05:51:57.136Z,11.72
2018-04-27T05:52:57.129Z,11.84
2018-04-27T05:53:57.119Z,11.84
2018-04-27T05:54:57.113Z,11.87
2018-04-27T05:55:57.103Z,11.93
2018-04-27T05:56:57.093Z,11.97
2018-04-27T05:57:57.077Z,11.90
2018-04-27T05:58:57.067Z,11.94
2018-04-27T05:59:57.055Z,12.07
2018-04-27T06:00:57.048Z,12.07
2018-04-27T06:01:57.035Z,12.08
2018-04-27T06:02:57.025Z,12.23
2018-04-27T06:03:57.015Z,12.36
2018-04-27T06:04:57.003Z,12.43
2018-04-27T06:05:56.994Z,12.40
2018-04-27T06:06:56.984Z,12.48
2018-04-27T06:07:56.975Z,12.54
2018-04-27T06:08:56.964Z,12.66
2018-04-27T06:09:56.955Z,12.61
2018-04-27T06:10:56.945Z,12.61
2018-04-27T06:11:56.936Z,12.61
2018-04-27T06:12:56.924Z,12.58
2018-04-27T06:13:56.914Z,12.44
2018-04-27T06:14:56.906Z,12.38
2018-04-27T06:15:56.892Z,12.37
2018-04-27T06:16:56.897Z,12.40
2018-04-27T06:17:56.881Z,12.38
2018-04-27T06:18:56.864Z,12.40
2018-04-27T06:19:56.858Z,12.43
2018-04-27T06:20:56.840Z,12.51
2018-04-27T06:21:56.841Z,12.41
2018-04-27T06:22:56.824Z,12.37
2018-04-27T06:23:56.812Z,12.38
2018-04-27T06:24:56.800Z,12.51
2018-04-27T06:25:56.798Z,12.51
2018-04-27T06:26:56.784Z,12.56
2018-04-27T06:27:56.771Z,12.40
2018-04-27T06:28:56.761Z,12.25
2018-04-27T06:29:56.753Z,12.21
2018-04-27T06:30:56.744Z,12.15
2018-04-27T06:31:56.736Z,12.08
2018-04-27T06:32:56.721Z,12.04
2018-04-27T06:33:56.712Z,12.05
2018-04-27T06:34:56.700Z,12.07
2018-04-27T06:35:56.696Z,12.04
2018-04-27T06:36:56.683Z,12.13
2018-04-27T06:37:56.671Z,12.22
2018-04-27T06:38:56.662Z,12.12
2018-04-27T06:39:56.648Z,12.23
2018-04-27T06:40:56.641Z,12.31
2018-04-27T06:41:56.629Z,12.33
2018-04-27T06:42:56.620Z,12.26
2018-04-27T06:43:56.610Z,12.33
2018-04-27T06:44:56.598Z,12.31
2018-04-27T06:45:56.591Z,12.26
2018-04-27T06:46:56.580Z,12.38
2018-04-27T06:47:56.570Z,12.44
2018-04-27T06:48:56.564Z,12.38
2018-04-27T06:49:56.547Z,12.41
2018-04-27T06:50:56.535Z,12.38
2018-04-27T06:51:56.525Z,12.38
2018-04-27T06:52:56.515Z,12.37
2018-04-27T06:53:56.504Z,12.51
2018-04-27T06:54:56.496Z,12.44
2018-04-27T06:55:56.485Z,12.55
2018-04-27T06:56:56.475Z,12.62
2018-04-27T06:57:56.463Z,12.58
2018-04-27T06:58:56.455Z,12.63
2018-04-27T06:59:56.444Z,12.73
2018-04-27T07:00:56.437Z,12.69
2018-04-27T07:01:56.429Z,12.67
2018-04-27T07:02:56.416Z,12.62
2018-04-27T07:03:56.404Z,12.63
2018-04-27T07:04:56.391Z,12.61
2018-04-27T07:05:56.385Z,12.66
2018-04-27T07:06:56.376Z,12.71
2018-04-27T07:07:56.362Z,12.76
2018-04-27T07:08:56.354Z,12.76
2018-04-27T07:09:56.344Z,12.89
2018-04-27T07:10:56.345Z,12.77
2018-04-27T07:11:56.324Z,12.84
2018-04-27T07:12:56.313Z,13.09
2018-04-27T07:13:56.306Z,13.19
2018-04-27T07:14:56.294Z,13.31
2018-04-27T07:15:56.285Z,13.36
2018-04-27T07:16:56.326Z,13.39
2018-04-27T07:17:56.266Z,13.43
2018-04-27T07:18:56.257Z,13.41
2018-04-27T07:19:56.244Z,13.38
2018-04-27T07:20:56.237Z,13.39
2018-04-27T07:21:56.226Z,13.32
2018-04-27T07:22:56.216Z,13.38
2018-04-27T07:23:56.207Z,13.39
2018-04-27T07:24:56.197Z,13.54
2018-04-27T07:25:56.229Z,13.51
2018-04-27T07:26:56.179Z,13.50
2018-04-27T07:27:56.170Z,13.65
2018-04-27T07:28:56.159Z,13.65
2018-04-27T07:29:56.154Z,13.68
2018-04-27T07:30:56.142Z,13.68
2018-04-27T07:31:56.130Z,13.72
2018-04-27T07:32:56.125Z,13.62
2018-04-27T07:33:56.113Z,13.73
2018-04-27T07:34:56.111Z,13.73
2018-04-27T07:35:56.099Z,13.73
2018-04-27T07:36:56.089Z,13.76
2018-04-27T07:37:56.074Z,13.66
2018-04-27T07:38:56.074Z,13.71
2018-04-27T07:39:56.095Z,13.80
2018-04-27T07:40:56.045Z,13.86
2018-04-27T07:41:56.040Z,13.91
2018-04-27T07:42:56.030Z,14.01
2018-04-27T07:43:56.021Z,14.02
2018-04-27T07:44:56.010Z,14.20
2018-04-27T07:45:56.004Z,14.12
2018-04-27T07:46:55.991Z,14.16
2018-04-27T07:47:55.984Z,14.20
2018-04-27T07:48:55.975Z,14.08
2018-04-27T07:49:55.967Z,14.11
2018-04-27T07:50:55.957Z,14.26
2018-04-27T07:51:55.947Z,14.24
2018-04-27T07:52:55.941Z,14.19
2018-04-27T07:53:55.930Z,14.12
2018-04-27T07:54:55.926Z,14.20
2018-04-27T07:55:55.915Z,14.23
2018-04-27T07:56:55.905Z,14.20
2018-04-27T07:57:55.901Z,14.16
2018-04-27T07:58:55.887Z,14.31
2018-04-27T07:59:55.876Z,14.30
2018-04-27T08:00:55.865Z,14.41
2018-04-27T08:01:55.868Z,14.34
2018-04-27T08:02:55.853Z,14.44
2018-04-27T08:03:55.839Z,14.39
2018-04-27T08:04:55.834Z,14.48
2018-04-27T08:05:55.825Z,14.52
2018-04-27T08:06:55.816Z,14.56
2018-04-27T08:07:55.809Z,14.56
2018-04-27T08:08:55.911Z,14.66
2018-04-27T08:09:55.792Z,14.83
2018-04-27T08:10:55.784Z,14.95
2018-04-27T08:11:55.773Z,15.09
2018-04-27T08:12:55.767Z,15.15
2018-04-27T08:13:55.759Z,15.43
2018-04-27T08:14:55.750Z,15.37
2018-04-27T08:15:55.740Z,15.48
2018-04-27T08:16:55.733Z,15.38
2018-04-27T08:17:55.727Z,15.51
2018-04-27T08:18:55.716Z,15.44
2018-04-27T08:19:55.708Z,15.51
2018-04-27T08:20:55.697Z,15.56
2018-04-27T08:21:55.690Z,15.56
2018-04-27T08:22:55.683Z,15.52
2018-04-27T08:23:55.674Z,15.56
2018-04-27T08:24:55.669Z,15.56
2018-04-27T08:25:55.662Z,15.67
2018-04-27T08:26:55.652Z,15.64
2018-04-27T08:27:55.643Z,15.78
2018-04-27T08:28:55.635Z,15.85
2018-04-27T08:29:55.627Z,15.91
2018-04-27T08:30:55.621Z,15.85
2018-04-27T08:31:55.610Z,15.84
2018-04-27T08:32:55.602Z,15.84
2018-04-27T08:33:55.595Z,15.93
2018-04-27T08:34:55.591Z,15.81
2018-04-27T08:35:55.585Z,15.91
2018-04-27T08:36:55.572Z,15.74
2018-04-27T08:37:55.567Z,15.80
2018-04-27T08:38:55.561Z,15.86
2018-04-27T08:39:55.550Z,15.92
2018-04-27T08:40:55.543Z,15.88
2018-04-27T08:41:55.534Z,15.86
2018-04-27T08:42:55.533Z,15.86
2018-04-27T08:43:55.520Z,15.80
2018-04-27T08:44:55.516Z,15.76
2018-04-27T08:45:55.504Z,15.86
2018-04-27T08:46:55.498Z,15.81
2018-04-27T08:47:55.491Z,15.71
2018-04-27T08:48:55.483Z,15.84
2018-04-27T08:49:55.478Z,15.80
2018-04-27T08:50:55.476Z,15.89
2018-04-27T08:51:55.460Z,15.78
2018-04-27T08:52:55.456Z,15.71
2018-04-27T08:53:55.449Z,15.64
2018-04-27T08:54:55.440Z,15.80
2018-04-27T08:55:55.432Z,15.85
2018-04-27T08:56:55.425Z,15.80
2018-04-27T08:57:55.417Z,15.76
2018-04-27T08:58:55.413Z,15.68
2018-04-27T08:59:55.402Z,15.73
2018-04-27T09:00:55.400Z,15.88
2018-04-27T09:01:55.388Z,15.86
2018-04-27T09:02:55.383Z,15.99
2018-04-27T09:03:55.375Z,15.93
2018-04-27T09:04:55.371Z,16.07
2018-04-27T09:05:55.362Z,16.14
2018-04-27T09:06:55.352Z,16.13
2018-04-27T09:07:55.347Z,16.25
2018-04-27T09:08:55.340Z,16.16
2018-04-27T09:09:55.332Z,16.26
2018-04-27T09:10:55.327Z,16.29
2018-04-27T09:11:55.317Z,16.30
2018-04-27T09:12:55.312Z,16.40
2018-04-27T09:13:55.303Z,16.47
2018-04-27T09:14:55.299Z,16.48
2018-04-27T09:15:55.291Z,16.42
2018-04-27T09:16:55.282Z,16.59
2018-04-27T09:17:55.277Z,16.54
2018-04-27T09:18:55.269Z,16.63
2018-04-27T09:19:55.262Z,16.72
2018-04-27T09:20:55.257Z,16.78
2018-04-27T09:21:55.253Z,16.88
2018-04-27T09:22:55.240Z,16.90
2018-04-27T09:23:55.234Z,17.07
2018-04-27T09:24:55.229Z,17.05
2018-04-27T09:25:55.220Z,16.95
2018-04-27T09:26:55.273Z,16.92
2018-04-27T09:27:55.207Z,17.05
2018-04-27T09:28:55.200Z,17.17
2018-04-27T09:29:55.196Z,17.17
2018-04-27T09:30:55.187Z,17.21
2018-04-27T09:31:55.186Z,17.25
2018-04-27T09:32:55.178Z,17.22
2018-04-27T09:33:55.167Z,17.38
2018-04-27T09:34:55.163Z,17.54
2018-04-27T09:35:55.158Z,17.36
2018-04-27T09:36:55.148Z,17.45
2018-04-27T09:37:55.139Z,17.46
2018-04-27T09:38:55.136Z,17.66
2018-04-27T09:39:55.130Z,17.68
2018-04-27T09:40:55.121Z,17.77
2018-04-27T09:41:55.120Z,17.84
2018-04-27T09:42:55.109Z,17.95
2018-04-27T09:43:55.103Z,17.99
2018-04-27T09:44:55.096Z,17.99
2018-04-27T09:45:55.090Z,18.02
2018-04-27T09:46:55.088Z,18.09
2018-04-27T09:47:55.080Z,18.07
2018-04-27T09:48:55.075Z,18.14
2018-04-27T09:49:55.068Z,18.10
2018-04-27T09:50:55.059Z,18.19
2018-04-27T09:51:55.056Z,18.20
2018-04-27T09:52:55.052Z,18.26
2018-04-27T09:53:55.047Z,18.42
2018-04-27T09:54:55.038Z,18.47
2018-04-27T09:55:55.029Z,18.57
2018-04-27T09:56:55.026Z,18.71
2018-04-27T09:57:55.020Z,18.90
2018-04-27T09:58:55.014Z,18.94
2018-04-27T09:59:55.008Z,19.02
2018-04-27T10:00:55.003Z,19.10
2018-04-27T10:01:54.998Z,19.13
2018-04-27T10:02:54.995Z,19.16
2018-04-27T10:03:54.987Z,19.24
2018-04-27T10:04:54.981Z,19.17
2018-04-27T10:05:54.974Z,19.13
2018-04-27T10:06:54.970Z,19.16
2018-04-27T10:07:54.968Z,19.21
2018-04-27T10:08:54.961Z,19.27
2018-04-27T10:09:54.962Z,19.32
2018-04-27T10:10:54.955Z,19.45
2018-04-27T10:11:54.945Z,19.45
2018-04-27T10:12:54.941Z,19.55
2018-04-27T10:13:54.939Z,19.53
2018-04-27T10:14:54.938Z,19.76
2018-04-27T10:15:54.928Z,19.76
2018-04-27T10:16:54.922Z,19.75
2018-04-27T10:17:54.920Z,19.62
2018-04-27T10:18:54.915Z,19.49
2018-04-27T10:19:54.910Z,19.61
2018-04-27T10:20:54.905Z,19.65
2018-04-27T10:21:54.902Z,19.65
2018-04-27T10:22:54.897Z,19.70
2018-04-27T10:23:54.892Z,19.76
2018-04-27T10:24:54.896Z,19.75
2018-04-27T10:25:54.888Z,19.76
2018-04-27T10:26:54.881Z,19.90
2018-04-27T10:27:54.876Z,19.94
2018-04-27T10:28:54.875Z,20.08
2018-04-27T10:29:54.868Z,20.19
2018-04-27T10:30:54.942Z,20.22
2018-04-27T10:31:54.858Z,20.23
2018-04-27T10:32:54.855Z,20.37
2018-04-27T10:33:54.849Z,20.35
2018-04-27T10:34:54.847Z,20.35
2018-04-27T10:35:54.841Z,20.40
2018-04-27T10:36:54.837Z,20.53
2018-04-27T10:37:54.834Z,20.51
2018-04-27T10:38:54.830Z,20.60
2018-04-27T10:39:54.826Z,20.50
2018-04-27T10:40:54.820Z,20.63
2018-04-27T10:41:54.815Z,20.66
2018-04-27T10:42:54.885Z,20.75
2018-04-27T10:43:54.812Z,20.61
2018-04-27T10:44:54.814Z,20.76
2018-04-27T10:45:54.803Z,20.73
2018-04-27T10:46:54.800Z,20.90
2018-04-27T10:47:54.796Z,20.91
2018-04-27T10:48:54.790Z,20.93
2018-04-27T10:49:54.786Z,20.83
2018-04-27T10:50:54.782Z,20.88
2018-04-27T10:51:54.780Z,20.83
2018-04-27T10:52:54.777Z,20.76
2018-04-27T10:53:54.771Z,20.58
2018-04-27T10:54:54.772Z,20.63
2018-04-27T10:55:54.767Z,20.73
2018-04-27T10:56:54.762Z,20.81
2018-04-27T10:57:54.760Z,20.87
2018-04-27T10:58:54.755Z,20.75
2018-04-27T10:59:54.752Z,20.75
2018-04-27T11:00:54.752Z,20.75
2018-04-27T11:01:54.747Z,20.82
2018-04-27T11:02:54.744Z,20.96
2018-04-27T11:03:54.740Z,20.93
2018-04-27T11:04:54.736Z,20.94
2018-04-27T11:05:54.740Z,20.96
2018-04-27T11:06:54.729Z,21.06
2018-04-27T11:07:54.726Z,21.16
2018-04-27T11:08:54.725Z,21.15
2018-04-27T11:09:54.723Z,21.24
2018-04-27T11:10:54.763Z,21.27
2018-04-27T11:11:54.715Z,21.12
2018-04-27T11:12:54.710Z,21.26
2018-04-27T11:13:54.707Z,21.22
2018-04-27T11:14:54.704Z,21.36
2018-04-27T11:15:54.699Z,21.45
2018-04-27T11:16:54.804Z,21.51
2018-04-27T11:17:54.694Z,21.64
2018-04-27T11:18:54.692Z,21.66
2018-04-27T11:19:54.689Z,21.56
2018-04-27T11:20:54.687Z,21.55
2018-04-27T11:21:54.681Z,21.53
2018-04-27T11:22:54.689Z,21.52
2018-04-27T11:23:54.680Z,21.46
2018-04-27T11:24:54.672Z,21.56
2018-04-27T11:25:54.674Z,21.49
2018-04-27T11:26:54.668Z,21.49
2018-04-27T11:27:54.663Z,21.56
2018-04-27T11:28:54.662Z,21.56
2018-04-27T11:29:54.659Z,21.56
2018-04-27T11:30:54.655Z,21.58
2018-04-27T11:31:54.651Z,21.55
2018-04-27T11:32:54.653Z,21.59
2018-04-27T11:33:54.646Z,21.55
2018-04-27T11:34:54.646Z,21.53
2018-04-27T11:35:54.646Z,21.55
2018-04-27T11:36:54.640Z,21.64
2018-04-27T11:37:54.637Z,21.61
2018-04-27T11:38:54.636Z,21.63
2018-04-27T11:39:54.627Z,21.74
2018-04-27T11:40:54.626Z,21.77
2018-04-27T11:41:54.624Z,21.82
2018-04-27T11:42:54.621Z,21.79
2018-04-27T11:43:54.616Z,21.89
2018-04-27T11:44:54.619Z,21.85
2018-04-27T11:45:54.609Z,21.96
2018-04-27T11:46:54.609Z,21.91
2018-04-27T11:47:54.605Z,22.01
2018-04-27T11:48:54.608Z,22.06
2018-04-27T11:49:54.601Z,22.21
2018-04-27T11:50:54.598Z,22.27
2018-04-27T11:51:54.601Z,22.23
2018-04-27T11:52:54.592Z,22.31
2018-04-27T11:53:54.592Z,22.23
2018-04-27T11:54:54.589Z,22.24
2018-04-27T11:55:54.589Z,22.21
2018-04-27T11:56:54.581Z,22.23
2018-04-27T11:57:54.581Z,22.15
2018-04-27T11:58:54.577Z,22.21
2018-04-27T11:59:54.577Z,22.21
2018-04-27T12:00:54.571Z,22.27
2018-04-27T12:01:54.572Z,22.30
2018-04-27T12:02:54.566Z,22.35
2018-04-27T12:03:54.563Z,22.51
2018-04-27T12:04:54.561Z,22.51
2018-04-27T12:05:54.558Z,22.59
2018-04-27T12:06:54.555Z,22.64
2018-04-27T12:07:54.554Z,22.70
2018-04-27T12:08:54.547Z,22.75
2018-04-27T12:09:54.551Z,22.79
2018-04-27T12:10:54.543Z,22.82
2018-04-27T12:11:54.543Z,22.86
2018-04-27T12:12:54.543Z,23.00
2018-04-27T12:13:54.537Z,23.01
2018-04-27T12:14:54.534Z,22.89
2018-04-27T12:15:54.533Z,22.99
2018-04-27T12:16:54.529Z,22.93
2018-04-27T12:17:54.530Z,22.97
2018-04-27T12:18:54.528Z,23.03
2018-04-27T12:19:54.529Z,23.06
2018-04-27T12:20:54.518Z,23.16
2018-04-27T12:21:54.520Z,23.06
2018-04-27T12:22:54.515Z,23.03
2018-04-27T12:23:54.515Z,22.88
2018-04-27T12:24:54.511Z,22.86
2018-04-27T12:25:54.509Z,22.96
2018-04-27T12:26:54.512Z,22.84
2018-04-27T12:27:54.517Z,22.88
2018-04-27T12:28:54.501Z,22.85
2018-04-27T12:29:54.499Z,22.91
2018-04-27T12:30:54.576Z,23.00
2018-04-27T12:31:54.610Z,22.93
2018-04-27T12:32:54.491Z,22.89
2018-04-27T12:33:54.488Z,22.89
2018-04-27T12:34:54.487Z,22.82
2018-04-27T12:35:54.486Z,22.93
2018-04-27T12:36:54.483Z,22.96
2018-04-27T12:37:54.485Z,23.07
2018-04-27T12:38:54.533Z,23.15
2018-04-27T12:39:54.475Z,23.11
2018-04-27T12:40:54.474Z,23.19
2018-04-27T12:41:54.551Z,23.21
2018-04-27T12:42:54.472Z,23.37
2018-04-27T12:43:54.468Z,23.37
2018-04-27T12:44:54.469Z,23.56
2018-04-27T12:45:54.465Z,23.57
2018-04-27T12:46:54.462Z,23.59
2018-04-27T12:47:54.460Z,23.64
2018-04-27T12:48:54.460Z,23.74
2018-04-27T12:49:54.455Z,23.75
2018-04-27T12:50:54.453Z,23.84
2018-04-27T12:51:54.452Z,23.74